Time;durP1;ratioP1;P1;durP2;ratioP2;P2;SDS_P1;SDS_P2;PMS_P1;PMS_P2;Temp;Humidity;BMP_temperature;BMP_pressure;BME280_temperature;BME280_humidity;BME280_pressure;Samples;Min_cycle;Max_cycle;Signal;HPM_P1;HPM_P2
2021/11/09 00:00:10;;;;;;;4.45;3.27;;;;;;;14.32;58.89;102167.95;1715594;83;21030;-51
2021/11/09 00:02:39;;;;;;;5.05;3.08;;;;;;;14.31;58.81;102164.45;1716278;82;21025;-50
2021/11/09 00:05:08;;;;;;;4.08;2.98;;;;;;;14.36;58.52;102178.32;1716417;82;21057;-52
2021/11/09 00:10:07;;;;;;;3.80;2.98;;;;;;;14.15;58.72;102159.42;1610901;88;21071;-50
2021/11/09 00:12:44;;;;;;;4.08;2.90;;;;;;;14.08;59.06;102161.25;1608317;88;21052;-53
2021/11/09 00:15:15;;;;;;;3.95;2.95;;;;;;;14.10;59.01;102166.02;1578629;91;21056;-53
2021/11/09 00:17:43;;;;;;;4.45;3.02;;;;;;;14.05;59.11;102177.02;1610861;88;21107;-49
2021/11/09 00:20:13;;;;;;;3.52;3.02;;;;;;;14.07;58.97;102162.16;1610806;88;21087;-53
2021/11/09 00:22:39;;;;;;;4.65;3.47;;;;;;;14.03;59.27;102167.45;1611091;89;21059;-50
2021/11/09 00:25:07;;;;;;;5.00;3.10;;;;;;;14.21;58.70;102165.44;1610810;88;21040;-50
2021/11/09 00:27:34;;;;;;;3.92;3.50;;;;;;;14.08;59.05;102161.25;1610863;88;21090;-53
2021/11/09 00:30:01;;;;;;;3.37;2.85;;;;;;;14.10;59.04;102151.63;1610779;88;21056;-56
2021/11/09 00:32:28;;;;;;;4.05;3.40;;;;;;;14.10;59.18;102137.67;1610664;88;21080;-50
2021/11/09 00:34:55;;;;;;;5.80;3.02;;;;;;;14.24;58.63;102133.96;1610537;88;21090;-51
2021/11/09 00:37:21;;;;;;;3.75;2.75;;;;;;;14.30;58.42;102126.05;1610754;88;21164;-50
2021/11/09 00:39:48;;;;;;;3.80;2.62;;;;;;;14.31;58.18;102113.83;1582027;90;21469;-50
2021/11/09 00:42:15;;;;;;;4.80;2.60;;;;;;;14.29;58.04;102120.41;1571637;90;21524;-53
2021/11/09 00:44:42;;;;;;;2.72;2.52;;;;;;;14.28;57.77;102112.12;1574932;90;21077;-52
2021/11/09 00:47:08;;;;;;;5.65;2.92;;;;;;;14.29;57.65;102113.86;1610705;86;21094;-54
2021/11/09 00:49:35;;;;;;;2.92;2.55;;;;;;;14.32;57.70;102118.19;1650636;85;21054;-53
2021/11/09 00:52:03;;;;;;;3.45;2.40;;;;;;;14.33;57.73;102115.55;1675140;84;21034;-53
2021/11/09 00:54:34;;;;;;;2.67;2.35;;;;;;;14.35;57.46;102115.07;1653345;85;21046;-53
2021/11/09 00:57:00;;;;;;;2.60;2.05;;;;;;;14.37;57.38;102116.34;1708183;83;21053;-56
2021/11/09 00:59:27;;;;;;;3.70;2.67;;;;;;;14.40;57.38;102113.70;1708933;82;21060;-54
2021/11/09 01:01:55;;;;;;;3.67;2.83;;;;;;;14.43;56.95;102126.28;1709027;82;21056;-51
2021/11/09 01:04:22;;;;;;;4.08;2.45;;;;;;;14.42;56.94;102132.43;1709586;82;21013;-53
2021/11/09 01:06:48;;;;;;;6.12;3.15;;;;;;;14.43;56.93;102131.53;1703385;83;21009;-50
2021/11/09 01:09:15;;;;;;;3.30;2.75;;;;;;;14.42;56.93;102121.95;1711555;82;21029;-55
2021/11/09 01:11:41;;;;;;;4.90;3.30;;;;;;;14.43;57.00;102122.36;1709264;82;20989;-55
2021/11/09 01:14:08;;;;;;;4.55;2.85;;;;;;;14.45;57.03;102117.96;1709054;82;20965;-52
2021/11/09 01:16:35;;;;;;;5.55;3.33;;;;;;;14.49;56.87;102131.86;1705913;82;21005;-51
2021/11/09 01:19:04;;;;;;;5.47;3.10;;;;;;;14.49;56.88;102148.45;1707888;83;21013;-57
2021/11/09 01:21:32;;;;;;;3.33;2.67;;;;;;;14.54;56.89;102156.24;1704931;82;21053;-54
2021/11/09 01:23:59;;;;;;;4.87;3.85;;;;;;;14.55;56.66;102170.62;1706933;82;21017;-52
2021/11/09 01:26:26;;;;;;;3.37;3.05;;;;;;;14.49;56.71;102153.69;1711512;82;21009;-55
2021/11/09 01:28:55;;;;;;;6.62;3.30;;;;;;;14.46;56.89;102139.79;1712275;82;20981;-51
2021/11/09 01:31:22;;;;;;;4.70;3.00;;;;;;;14.46;56.74;102125.38;1712243;82;21024;-52
2021/11/09 01:33:49;;;;;;;5.45;3.20;;;;;;;14.47;56.64;102143.69;1715999;82;21501;-53
2021/11/09 01:36:15;;;;;;;4.03;3.15;;;;;;;14.43;56.84;102152.48;1712091;81;21505;-54
2021/11/09 01:38:42;;;;;;;7.12;3.52;;;;;;;14.42;57.07;102152.07;1697215;84;20990;-51
2021/11/09 01:41:09;;;;;;;5.78;3.60;;;;;;;14.46;57.01;102144.59;1702721;84;21522;-57
2021/11/09 01:43:37;;;;;;;4.03;3.15;;;;;;;14.47;56.90;102133.64;1700191;84;21479;-50
2021/11/09 01:46:05;;;;;;;4.62;3.00;;;;;;;14.46;57.07;102138.04;1688335;84;21049;-54
2021/11/09 01:48:32;;;;;;;4.67;3.35;;;;;;;14.46;57.00;102148.52;1704650;84;21046;-57
2021/11/09 01:51:03;;;;;;;4.55;3.45;;;;;;;14.45;56.70;102145.46;1703636;84;21014;-54
2021/11/09 01:53:30;;;;;;;5.15;3.52;;;;;;;14.44;56.94;102138.95;1735547;82;21499;-51
2021/11/09 01:55:58;;;;;;;4.95;3.95;;;;;;;14.45;56.67;102138.91;1701074;84;21471;-53
2021/11/09 01:58:25;;;;;;;4.60;4.05;;;;;;;14.46;56.71;102153.75;1688508;84;21495;-54
2021/11/09 02:00:59;;;;;;;5.20;3.95;;;;;;;14.45;57.09;102156.38;1701222;84;21010;-51
2021/11/09 02:03:26;;;;;;;5.90;4.08;;;;;;;14.42;57.27;102169.53;1700471;84;21026;-55
2021/11/09 02:05:53;;;;;;;6.97;4.70;;;;;;;14.44;57.40;102181.72;1706822;84;21030;-51
2021/11/09 02:08:23;;;;;;;6.78;4.60;;;;;;;14.44;57.33;102169.94;1704518;84;21027;-51
2021/11/09 02:10:50;;;;;;;5.95;4.58;;;;;;;14.44;57.25;102185.66;1699568;84;21541;-56
2021/11/09 02:13:18;;;;;;;5.33;4.55;;;;;;;14.43;57.22;102195.69;1700956;84;20998;-58
2021/11/09 02:15:45;;;;;;;6.05;4.60;;;;;;;14.41;57.28;102194.84;1698012;84;21475;-54
2021/11/09 02:18:13;;;;;;;7.22;4.42;;;;;;;14.38;57.34;102194.91;1700203;84;21514;-54
2021/11/09 02:20:42;;;;;;;7.10;4.95;;;;;;;14.37;57.41;102185.31;1701265;84;21459;-54
2021/11/09 02:23:08;;;;;;;9.60;5.62;;;;;;;14.37;57.20;102194.47;1720516;81;21003;-54
2021/11/09 02:25:34;;;;;;;9.53;6.47;;;;;;;14.38;57.50;102209.31;1735246;81;21065;-54
2021/11/09 02:28:03;;;;;;;10.23;7.40;;;;;;;14.40;57.82;102216.70;1701100;84;21057;-54
2021/11/09 02:30:29;;;;;;;8.63;7.65;;;;;;;14.39;58.04;102216.27;1701094;84;21046;-51
2021/11/09 02:32:57;;;;;;;9.83;7.78;;;;;;;14.39;58.18;102207.09;1688450;84;21014;-56
2021/11/09 02:35:24;;;;;;;8.68;7.50;;;;;;;14.35;58.16;102187.08;1700425;84;21637;-50
2021/11/09 02:37:52;;;;;;;10.45;7.87;;;;;;;14.34;58.35;102201.05;1702536;83;21506;-52
2021/11/09 02:40:20;;;;;;;11.90;8.23;;;;;;;14.40;58.32;102200.12;1742990;81;21006;-53
2021/11/09 02:42:53;;;;;;;9.88;6.80;;;;;;;14.45;58.31;102193.91;1707759;83;21053;-55
2021/11/09 02:45:27;;;;;;;7.08;6.37;;;;;;;14.46;57.97;102179.95;1708803;83;21026;-55
2021/11/09 02:47:59;;;;;;;8.88;6.70;;;;;;;14.46;57.64;102160.73;1702046;83;21518;-53
2021/11/09 02:50:27;;;;;;;8.95;5.87;;;;;;;14.45;57.68;102178.20;1704732;83;21046;-53
2021/11/09 02:53:06;;;;;;;7.87;6.45;;;;;;;14.44;57.42;102180.84;1702481;83;21553;-56
2021/11/09 02:55:35;;;;;;;8.18;6.95;;;;;;;14.42;57.21;102186.12;1701604;83;20998;-50
2021/11/09 02:58:11;;;;;;;7.40;6.50;;;;;;;14.40;57.29;102184.41;1692257;83;21029;-54
2021/11/09 03:00:34;;;;;;;8.18;6.10;;;;;;;14.38;57.58;102181.81;1702242;83;21030;-50
2021/11/09 03:05:40;;;;;;;8.68;7.00;;;;;;;14.38;57.70;102166.11;1647621;86;21078;-52
2021/11/09 03:08:01;;;;;;;8.70;6.65;;;;;;;14.37;57.76;102156.50;1606946;89;21073;-54
2021/11/09 03:12:51;;;;;;;8.10;6.50;;;;;;;14.33;57.57;102166.60;1613490;89;21037;-51
2021/11/09 03:15:21;;;;;;;8.30;7.20;;;;;;;14.33;57.73;102167.91;1614298;89;21026;-55
2021/11/09 03:17:56;;;;;;;9.95;7.78;;;;;;;14.34;57.85;102170.94;1611648;89;21570;-53
2021/11/09 03:20:41;;;;;;;7.20;6.15;;;;;;;14.34;57.98;102174.86;1616624;89;21098;-53
2021/11/09 03:47:22;;;;;;;8.10;6.70;;;;;;;14.25;58.12;102157.96;1611519;89;21129;-51
2021/11/09 03:49:50;;;;;;;10.98;8.83;;;;;;;14.20;58.26;102162.38;1614568;87;21081;-53
2021/11/09 03:52:21;;;;;;;12.00;8.50;;;;;;;14.17;58.52;102161.58;1614231;89;21582;-55
2021/11/09 03:54:51;;;;;;;12.53;10.58;;;;;;;14.14;58.91;102166.40;1612959;89;21038;-55
2021/11/09 03:57:32;;;;;;;13.95;11.88;;;;;;;14.14;59.23;102175.56;1612680;87;21527;-56
2021/11/09 04:02:46;;;;;;;14.90;13.32;;;;;;;14.09;59.92;102188.30;1615653;89;21026;-55
2021/11/09 04:05:06;;;;;;;14.20;12.23;;;;;;;14.06;60.23;102181.78;1621244;88;21050;-55
2021/11/09 04:07:41;;;;;;;14.90;12.90;;;;;;;14.06;60.40;102181.34;1630739;83;21066;-55
2021/11/09 04:20:27;;;;;;;14.43;11.57;;;;;;;14.05;60.66;102211.05;1718385;82;21510;-50
2021/11/09 04:25:46;;;;;;;17.12;13.00;;;;;;;14.07;60.55;102218.87;1717116;83;21585;-55
2021/11/09 05:02:47;;;;;;;16.27;13.45;;;;;;;14.17;60.78;102242.30;1741851;81;21035;-51
2021/11/09 05:10:42;;;;;;;15.23;13.68;;;;;;;14.10;60.80;102256.33;1735412;81;21499;-51
2021/11/09 05:13:09;;;;;;;18.12;13.98;;;;;;;14.13;60.80;102254.13;1741817;81;21050;-55
2021/11/09 05:15:35;;;;;;;16.23;13.95;;;;;;;14.12;60.64;102251.94;1738018;81;21082;-54
2021/11/09 05:18:02;;;;;;;19.57;14.43;;;;;;;14.09;60.75;102263.78;1741627;82;21066;-54
2021/11/09 05:20:31;;;;;;;17.80;14.50;;;;;;;14.05;60.81;102260.77;1727842;81;21031;-55
2021/11/09 05:22:58;;;;;;;17.02;13.58;;;;;;;14.02;61.01;102260.80;1738135;81;21049;-54
2021/11/09 05:25:25;;;;;;;17.42;14.85;;;;;;;13.99;61.10;102257.36;1741855;82;21038;-54
2021/11/09 05:27:53;;;;;;;16.97;13.60;;;;;;;14.01;61.11;102259.08;1741864;81;21035;-53
2021/11/09 05:30:20;;;;;;;14.95;13.32;;;;;;;13.98;61.11;102255.17;1741364;81;21034;-51
2021/11/09 05:32:47;;;;;;;15.60;13.05;;;;;;;13.95;60.92;102269.59;1738612;81;21467;-54
2021/11/09 05:35:14;;;;;;;16.60;14.33;;;;;;;13.94;60.94;102275.72;1738943;81;21553;-55
2021/11/09 05:37:44;;;;;;;15.45;13.85;;;;;;;13.96;60.98;102283.12;1740509;81;21554;-52
2021/11/09 05:40:11;;;;;;;17.00;12.90;;;;;;;13.98;60.99;102280.03;1746493;80;21039;-54
2021/11/09 05:42:38;;;;;;;14.95;12.43;;;;;;;13.99;60.82;102281.78;1747074;80;21026;-54
2021/11/09 05:45:08;;;;;;;15.72;13.15;;;;;;;14.00;60.82;102286.12;1745413;81;20994;-52
2021/11/09 05:47:36;;;;;;;13.90;12.35;;;;;;;14.00;60.62;102290.48;1742499;80;20991;-54
2021/11/09 05:50:05;;;;;;;17.32;13.53;;;;;;;14.03;60.46;102303.11;1746429;80;21042;-51
2021/11/09 05:52:32;;;;;;;17.70;12.18;;;;;;;14.02;60.53;102307.91;1747000;80;21514;-54
2021/11/09 05:54:58;;;;;;;16.23;12.75;;;;;;;14.04;60.50;102304.83;1748229;80;21029;-54
2021/11/09 05:57:24;;;;;;;14.18;12.03;;;;;;;14.05;60.53;102307.89;1745162;81;21034;-55
2021/11/09 05:59:51;;;;;;;13.83;11.68;;;;;;;14.09;60.45;102309.58;1749465;80;21031;-56
2021/11/09 06:02:18;;;;;;;15.58;13.05;;;;;;;14.11;60.30;102307.81;1748514;80;20994;-52
2021/11/09 06:04:44;;;;;;;18.20;13.58;;;;;;;14.12;60.22;102306.91;1746091;80;21075;-54
2021/11/09 06:07:10;;;;;;;14.18;11.88;;;;;;;14.14;60.15;102317.36;1736181;81;21038;-51
2021/11/09 06:09:38;;;;;;;16.57;12.35;;;;;;;14.17;60.11;102319.95;1749480;81;21523;-50
2021/11/09 06:12:07;;;;;;;13.68;11.65;;;;;;;14.16;59.94;102324.31;1749553;80;21546;-51
2021/11/09 06:14:35;;;;;;;13.00;10.90;;;;;;;14.17;59.62;102329.11;1748400;80;21030;-54
2021/11/09 06:17:02;;;;;;;14.38;10.93;;;;;;;14.16;59.02;102340.02;1742137;80;21010;-51
2021/11/09 06:19:29;;;;;;;13.58;10.95;;;;;;;14.14;59.15;102339.17;1744304;80;21557;-54
2021/11/09 06:21:55;;;;;;;12.70;10.13;;;;;;;14.14;59.03;102331.32;1745387;81;21550;-52
2021/11/09 06:24:23;;;;;;;14.38;10.23;;;;;;;14.13;58.78;102349.23;1740693;80;21021;-51
2021/11/09 06:26:50;;;;;;;13.03;10.80;;;;;;;14.11;58.71;102354.94;1746877;80;21510;-56
2021/11/09 06:29:17;;;;;;;12.90;10.10;;;;;;;14.08;58.54;102352.33;1744185;80;21522;-51
2021/11/09 06:31:45;;;;;;;14.50;10.35;;;;;;;14.08;58.63;102354.95;1748489;80;21101;-52
2021/11/09 06:34:11;;;;;;;13.08;10.35;;;;;;;14.08;58.42;102349.71;1747169;81;21042;-51
2021/11/09 06:36:38;;;;;;;10.32;9.23;;;;;;;14.07;58.40;102350.61;1750719;80;21085;-51
2021/11/09 06:39:04;;;;;;;12.33;9.73;;;;;;;14.09;58.19;102354.08;1740126;80;21007;-53
2021/11/09 06:41:31;;;;;;;11.53;10.00;;;;;;;14.07;58.01;102353.23;1733597;81;20987;-53
2021/11/09 06:43:57;;;;;;;11.33;9.53;;;;;;;13.91;58.26;102362.09;1723134;81;20987;-55
2021/11/09 06:46:23;;;;;;;12.15;9.93;;;;;;;13.82;58.40;102354.36;1735510;82;20987;-52
2021/11/09 06:48:50;;;;;;;12.30;10.20;;;;;;;13.78;58.46;102357.89;1736594;81;21058;-50
2021/11/09 06:51:17;;;;;;;9.68;8.68;;;;;;;13.75;58.59;102352.23;1736353;81;21031;-52
2021/11/09 06:53:44;;;;;;;11.95;9.93;;;;;;;13.75;58.66;102350.93;1734050;81;20990;-51
2021/11/09 06:56:11;;;;;;;11.75;9.80;;;;;;;13.77;58.72;102347.86;1725404;81;21558;-53
2021/11/09 06:58:37;;;;;;;12.58;9.98;;;;;;;13.81;58.80;102339.52;1735419;81;21455;-54
2021/11/09 07:01:04;;;;;;;11.60;9.43;;;;;;;13.84;58.44;102344.75;1733980;81;21491;-54
2021/11/09 07:03:33;;;;;;;10.00;9.03;;;;;;;13.83;58.17;102350.84;1703413;84;21546;-55
2021/11/09 07:06:05;;;;;;;10.72;9.63;;;;;;;13.84;58.12;102357.83;1696365;84;20998;-54
2021/11/09 07:08:32;;;;;;;10.78;9.28;;;;;;;13.86;58.24;102357.38;1702064;84;21474;-51
2021/11/09 07:10:59;;;;;;;15.18;9.98;;;;;;;13.87;57.60;102363.02;1700673;84;21539;-56
2021/11/09 07:13:26;;;;;;;12.55;10.55;;;;;;;13.86;57.80;102351.70;1734027;81;21468;-53
2021/11/09 07:15:52;;;;;;;12.30;9.38;;;;;;;13.95;57.87;102353.33;1722996;81;21059;-52
2021/11/09 07:18:21;;;;;;;10.68;8.30;;;;;;;13.94;58.16;102346.38;1734189;81;21072;-56
2021/11/09 07:20:49;;;;;;;9.45;8.48;;;;;;;14.14;57.39;102350.95;1723543;81;21483;-57
2021/11/09 07:23:16;;;;;;;11.08;8.28;;;;;;;14.24;56.74;102356.50;1733755;81;21026;-53
2021/11/09 07:25:44;;;;;;;11.33;8.48;;;;;;;14.28;56.23;102373.95;1734945;81;21071;-52
2021/11/09 07:28:10;;;;;;;10.50;8.60;;;;;;;14.28;56.26;102376.56;1735799;81;21031;-56
2021/11/09 07:30:43;;;;;;;9.33;8.33;;;;;;;14.30;56.29;102383.96;1736682;81;20995;-55
2021/11/09 07:33:10;;;;;;;8.93;7.80;;;;;;;14.32;55.62;102386.13;1739129;81;21468;-50
2021/11/09 07:35:37;;;;;;;11.15;8.85;;;;;;;14.29;55.56;102387.91;1734610;81;21042;-55
2021/11/09 07:38:04;;;;;;;10.43;9.25;;;;;;;14.25;55.56;102387.06;1734084;81;21578;-50
2021/11/09 07:40:30;;;;;;;11.45;10.25;;;;;;;14.23;55.61;102393.19;1733762;81;20956;-57
2021/11/09 07:42:57;;;;;;;13.75;9.93;;;;;;;14.24;56.16;102391.85;1733683;81;20995;-52
2021/11/09 07:45:24;;;;;;;9.65;8.35;;;;;;;14.29;56.36;102391.41;1728587;81;21077;-51
2021/11/09 07:47:55;;;;;;;11.63;8.50;;;;;;;14.31;56.31;102392.26;1736769;81;20995;-50
2021/11/09 07:50:19;;;;;;;10.18;8.48;;;;;;;14.28;55.79;102392.28;1723629;81;21555;-52
2021/11/09 07:52:47;;;;;;;11.45;8.50;;;;;;;14.30;56.03;102385.27;1734869;81;21566;-51
2021/11/09 07:55:18;;;;;;;9.45;8.48;;;;;;;14.33;55.77;102386.56;1736418;81;21003;-50
2021/11/09 07:57:45;;;;;;;9.68;8.20;;;;;;;14.36;55.80;102387.81;1730863;82;20991;-51
2021/11/09 08:05:38;;;;;;;12.70;9.03;;;;;;;14.38;55.32;102399.17;1723959;81;20091;-50
2021/11/09 08:08:06;;;;;;;11.22;9.53;;;;;;;14.35;55.56;102397.01;1733730;81;21015;-56
2021/11/09 08:10:26;;;;;;;13.15;10.58;;;;;;;14.34;55.86;102409.23;1735196;81;20983;-50
2021/11/09 08:12:52;;;;;;;13.32;11.08;;;;;;;14.33;56.32;102411.44;1734194;81;21089;-56
2021/11/09 08:15:19;;;;;;;12.85;10.85;;;;;;;14.34;56.51;102414.47;1734356;82;21113;-53
2021/11/09 08:17:45;;;;;;;15.70;11.57;;;;;;;14.35;56.96;102412.29;1736375;81;21029;-52
2021/11/09 08:20:13;;;;;;;12.65;11.05;;;;;;;14.36;57.02;102417.09;1734553;81;21535;-52
2021/11/09 08:22:40;;;;;;;13.25;11.57;;;;;;;14.38;57.06;102409.66;1733158;81;21019;-54
2021/11/09 08:25:07;;;;;;;14.60;10.80;;;;;;;14.41;57.15;102420.08;1725010;81;21035;-53
2021/11/09 08:27:34;;;;;;;12.70;10.38;;;;;;;14.42;56.76;102413.97;1735677;82;21015;-51
2021/11/09 08:30:00;;;;;;;13.83;10.95;;;;;;;14.39;56.85;102402.64;1736712;81;21451;-52
2021/11/09 08:32:27;;;;;;;12.88;11.22;;;;;;;14.39;56.86;102410.49;1736704;81;21007;-57
2021/11/09 08:34:53;;;;;;;14.78;10.23;;;;;;;14.38;56.88;102406.16;1734570;81;21078;-53
2021/11/09 08:37:21;;;;;;;13.00;10.43;;;;;;;14.39;56.89;102408.75;1733433;81;21534;-57
2021/11/09 08:39:48;;;;;;;11.93;9.48;;;;;;;14.40;56.93;102422.28;1743327;80;21029;-55
2021/11/09 08:42:24;;;;;;;15.70;11.22;;;;;;;14.38;56.58;102426.67;1746381;80;21022;-55
2021/11/09 08:47:36;;;;;;;10.90;9.80;;;;;;;14.35;56.42;102439.78;1747215;80;21506;-55
2021/11/09 08:50:01;;;;;;;16.07;9.90;;;;;;;14.36;56.34;102451.14;1744221;80;21018;-52
2021/11/09 08:52:31;;;;;;;12.85;10.08;;;;;;;14.34;56.24;102457.67;1746718;80;21507;-53
2021/11/09 09:05:54;;;;;;;12.60;9.63;;;;;;;14.35;55.43;102470.33;1749582;80;21551;-51
2021/11/09 09:08:22;;;;;;;13.98;9.50;;;;;;;14.30;55.29;102458.59;1737198;80;21525;-57
2021/11/09 09:10:49;;;;;;;10.93;8.98;;;;;;;14.28;55.52;102452.50;1748419;80;21026;-52
2021/11/09 09:13:16;;;;;;;14.23;9.95;;;;;;;14.26;55.23;102453.39;1713906;83;21517;-54
2021/11/09 09:15:43;;;;;;;12.75;9.58;;;;;;;14.24;55.24;102452.07;1709430;83;21489;-50
2021/11/09 09:18:09;;;;;;;15.32;10.63;;;;;;;14.26;55.22;102451.61;1702012;83;21498;-51
2021/11/09 09:20:43;;;;;;;11.10;8.75;;;;;;;14.26;55.38;102459.47;1695152;83;21515;-54
2021/11/09 09:23:17;;;;;;;12.75;10.13;;;;;;;14.28;55.33;102447.27;1691365;83;21059;-55
2021/11/09 09:25:49;;;;;;;13.20;10.15;;;;;;;14.31;55.25;102442.02;1700258;83;21124;-54
2021/11/09 09:57:24;;;;;;;13.70;11.20;;;;;;;14.47;56.32;102443.58;1684285;84;21024;-53
2021/11/09 09:59:53;;;;;;;18.45;11.57;;;;;;;14.52;56.03;102440.48;1682722;83;21553;-55
2021/11/09 10:02:24;;;;;;;14.93;12.18;;;;;;;14.52;56.10;102443.09;1684803;83;21036;-53
2021/11/09 10:05:05;;;;;;;13.40;11.88;;;;;;;14.52;56.38;102441.78;1685287;83;21059;-56
2021/11/09 10:07:38;;;;;;;17.17;12.78;;;;;;;14.54;56.43;102442.64;1649377;86;21092;-52
2021/11/09 10:10:16;;;;;;;14.60;12.73;;;;;;;14.55;56.50;102447.41;1696768;83;21533;-52
2021/11/09 10:12:46;;;;;;;15.83;13.03;;;;;;;14.58;56.62;102444.34;1699951;83;21049;-52
2021/11/09 10:15:22;;;;;;;16.80;12.13;;;;;;;14.62;56.77;102440.80;1595008;89;20994;-52
2021/11/09 10:17:53;;;;;;;14.28;12.63;;;;;;;14.69;56.87;102446.37;1594034;88;21585;-50
2021/11/09 10:20:24;;;;;;;16.55;13.40;;;;;;;14.73;56.79;102454.20;1608186;88;21585;-51
2021/11/09 10:23:01;;;;;;;18.15;13.43;;;;;;;14.76;56.88;102459.39;1604983;88;21122;-55
2021/11/09 10:25:27;;;;;;;17.62;13.68;;;;;;;14.79;56.78;102450.20;1505784;94;21115;-54
2021/11/09 10:28:03;;;;;;;16.77;14.78;;;;;;;14.81;56.90;102452.36;1505524;95;21061;-55
2021/11/09 10:30:37;;;;;;;16.40;13.60;;;;;;;14.85;57.11;102455.36;1494583;94;21157;-54
2021/11/09 10:33:04;;;;;;;16.02;13.50;;;;;;;14.85;56.71;102448.38;1491808;96;21163;-55
2021/11/09 10:35:31;;;;;;;20.85;13.18;;;;;;;14.80;56.88;102446.67;1494887;94;21176;-51
2021/11/09 10:38:03;;;;;;;17.67;14.15;;;;;;;14.76;56.73;102443.67;1494637;94;21184;-50
2021/11/09 10:40:38;;;;;;;14.63;12.47;;;;;;;14.71;56.80;102446.80;1485734;94;21614;-54
2021/11/09 10:43:10;;;;;;;16.93;13.32;;;;;;;14.65;57.10;102452.53;1485771;95;21150;-55
2021/11/09 10:45:38;;;;;;;16.17;12.60;;;;;;;14.41;57.75;102466.34;1531274;93;21118;-55
2021/11/09 10:48:15;;;;;;;16.93;12.73;;;;;;;14.38;58.02;102469.89;1525231;93;21658;-52
2021/11/09 10:50:46;;;;;;;16.77;12.80;;;;;;;14.37;57.96;102462.02;1527665;93;21107;-55
2021/11/09 11:04:03;;;;;;;14.28;11.68;;;;;;;14.09;58.32;102474.49;1403754;101;21173;-53
2021/11/09 11:06:35;;;;;;;15.58;12.00;;;;;;;14.02;58.53;102470.18;1407495;102;21244;-51
2021/11/09 11:09:17;;;;;;;15.90;11.57;;;;;;;13.97;58.80;102475.03;1407095;100;21125;-50
2021/11/09 11:11:50;;;;;;;13.93;11.22;;;;;;;13.92;58.75;102471.14;1419430;98;21646;-56
2021/11/09 11:14:24;;;;;;;16.75;10.88;;;;;;;13.86;58.85;102480.35;1375695;103;21657;-53
2021/11/09 11:17:00;;;;;;;14.23;11.33;;;;;;;13.83;59.08;102477.74;1374138;103;21162;-52
2021/11/09 11:19:35;;;;;;;13.95;10.78;;;;;;;13.79;59.14;102481.27;1373575;104;21753;-53
2021/11/09 11:22:06;;;;;;;11.57;10.38;;;;;;;13.79;59.14;102486.50;1389228;102;21699;-55
2021/11/09 11:24:34;;;;;;;15.05;12.37;;;;;;;13.79;59.33;102485.19;1394905;101;21096;-52
2021/11/09 11:27:01;;;;;;;14.40;11.97;;;;;;;13.85;59.23;102483.84;1394714;102;21131;-52
2021/11/09 11:29:32;;;;;;;14.43;11.53;;;;;;;13.84;59.34;102480.81;1394906;102;21668;-56
2021/11/09 11:32:00;;;;;;;13.48;11.38;;;;;;;13.87;59.36;102472.91;1394965;101;21605;-55
2021/11/09 11:34:27;;;;;;;15.32;11.80;;;;;;;13.89;59.32;102470.72;1427114;98;21144;-54
2021/11/09 11:36:55;;;;;;;13.85;11.08;;;;;;;13.93;59.07;102470.70;1431035;98;21231;-52
2021/11/09 11:39:24;;;;;;;13.48;11.33;;;;;;;13.95;59.12;102465.86;1436665;98;21230;-54
2021/11/09 11:42:07;;;;;;;13.83;11.83;;;;;;;13.97;59.16;102469.38;1455521;96;21106;-53
2021/11/09 11:44:32;;;;;;;16.20;12.17;;;;;;;14.01;59.27;102468.45;1454355;98;21154;-54
2021/11/09 11:47:02;;;;;;;16.45;11.33;;;;;;;14.06;59.32;102469.27;1450057;96;21603;-55
2021/11/09 11:49:42;;;;;;;16.15;11.80;;;;;;;14.11;59.12;102477.97;1451251;96;21266;-56
2021/11/09 11:52:19;;;;;;;13.60;11.05;;;;;;;14.15;59.04;102484.91;1454691;96;21168;-54
2021/11/09 11:55:05;;;;;;;15.08;12.00;;;;;;;14.21;59.05;102489.20;1459171;95;21679;-53
2021/11/09 11:57:45;;;;;;;12.50;10.98;;;;;;;14.26;59.08;102488.27;1465610;96;21071;-54
2021/11/09 12:00:42;;;;;;;15.55;12.23;;;;;;;14.35;58.87;102487.36;1513526;91;21093;-52
2021/11/09 12:03:29;;;;;;;14.73;10.85;;;;;;;14.37;58.78;102499.56;1539756;91;21121;-55
2021/11/09 12:05:59;;;;;;;16.50;11.63;;;;;;;14.40;58.36;102496.92;1540533;92;21110;-54
2021/11/09 12:08:39;;;;;;;12.73;10.63;;;;;;;14.42;58.43;102498.21;1540780;91;21634;-52
2021/11/09 12:11:27;;;;;;;13.03;11.03;;;;;;;14.45;58.16;102496.42;1506757;93;21040;-54
2021/11/09 12:13:59;;;;;;;13.35;11.22;;;;;;;14.45;57.54;102497.73;1533148;92;21613;-54
2021/11/09 12:16:49;;;;;;;12.60;10.50;;;;;;;14.36;57.41;102495.19;1531573;93;21170;-54
2021/11/09 12:19:40;;;;;;;12.78;10.43;;;;;;;14.28;57.47;102497.02;1537037;93;21147;-55
2021/11/09 12:22:12;;;;;;;12.90;10.23;;;;;;;14.23;57.58;102496.61;1538643;93;21047;-52
2021/11/09 12:25:00;;;;;;;11.85;10.58;;;;;;;14.17;57.62;102498.84;1524473;93;21104;-54
2021/11/09 12:27:48;;;;;;;14.95;11.38;;;;;;;14.13;57.61;102496.27;1519572;93;21052;-52
2021/11/09 12:30:40;;;;;;;19.57;14.43;;;;;;;14.09;57.60;102498.05;1522449;93;21162;-54
2021/11/09 12:33:27;;;;;;;19.32;14.33;;;;;;;14.05;57.55;102504.20;1522345;93;21076;-54
2021/11/09 12:36:05;;;;;;;17.48;13.15;;;;;;;14.03;57.66;102508.58;1526383;93;21524;-54
2021/11/09 12:38:39;;;;;;;15.28;12.10;;;;;;;14.01;57.49;102520.81;1522461;93;21174;-52
2021/11/09 12:41:22;;;;;;;13.83;11.30;;;;;;;13.93;57.61;102517.81;1528789;93;21220;-52
2021/11/09 12:43:52;;;;;;;16.67;10.82;;;;;;;13.89;57.59;102536.58;1534227;91;21101;-57
2021/11/09 12:46:39;;;;;;;11.18;9.48;;;;;;;13.86;57.86;102537.48;1522032;92;21045;-51
2021/11/09 12:49:18;;;;;;;13.35;8.98;;;;;;;13.86;57.94;102526.14;1568747;89;21086;-51
2021/11/09 12:51:53;;;;;;;12.63;9.38;;;;;;;13.89;57.85;102527.41;1575203;90;21143;-51
2021/11/09 12:54:28;;;;;;;9.90;8.13;;;;;;;13.88;57.74;102529.62;1586748;89;21077;-54
2021/11/09 12:56:59;;;;;;;10.58;8.25;;;;;;;13.86;58.04;102539.23;1603518;89;21642;-57
2021/11/09 12:59:36;;;;;;;12.23;8.15;;;;;;;13.86;58.19;102543.16;1544058;93;21100;-50
2021/11/09 13:04:50;;;;;;;10.43;7.80;;;;;;;13.87;58.14;102556.66;1537682;93;21090;-59
2021/11/09 13:09:56;;;;;;;13.53;9.70;;;;;;;13.89;57.82;102561.44;1531824;93;21098;-57
2021/11/09 13:12:32;;;;;;;10.90;8.70;;;;;;;13.86;57.87;102569.32;1548215;92;21115;-55
2021/11/09 13:15:03;;;;;;;9.68;7.87;;;;;;;13.84;57.89;102578.93;1570556;90;21588;-54
2021/11/09 13:17:52;;;;;;;10.68;8.48;;;;;;;13.81;57.88;102580.24;1585683;90;21564;-54
2021/11/09 13:20:24;;;;;;;12.28;8.43;;;;;;;13.77;58.10;102582.45;1602115;88;21052;-50
2021/11/09 13:23:04;;;;;;;11.88;8.35;;;;;;;13.76;57.82;102578.11;1632657;88;21066;-52
2021/11/09 13:25:38;;;;;;;8.68;7.72;;;;;;;13.72;57.83;102588.16;1637303;88;21110;-53
2021/11/09 13:30:55;;;;;;;12.20;7.83;;;;;;;13.69;57.81;102605.17;1568597;91;21093;-54
2021/11/09 13:33:23;;;;;;;11.18;7.95;;;;;;;13.69;57.87;102607.78;1566390;91;21538;-51
2021/11/09 13:35:51;;;;;;;11.28;8.33;;;;;;;13.67;57.59;102609.55;1568801;88;21024;-54
2021/11/09 13:38:33;;;;;;;10.30;7.95;;;;;;;13.66;57.68;102612.59;1625219;87;21092;-50
2021/11/09 13:41:18;;;;;;;9.58;7.55;;;;;;;13.66;57.73;102602.59;1618363;87;21033;-50
2021/11/09 13:43:53;;;;;;;12.07;8.28;;;;;;;13.69;57.91;102604.74;1616039;87;21081;-54
2021/11/09 13:46:25;;;;;;;10.93;7.90;;;;;;;13.71;57.87;102600.37;1605026;87;21037;-51
2021/11/09 13:49:00;;;;;;;11.33;8.50;;;;;;;13.70;57.99;102601.23;1573905;90;21170;-56
2021/11/09 13:51:37;;;;;;;11.65;8.30;;;;;;;13.72;58.06;102627.41;1579229;90;21593;-51
2021/11/09 13:54:08;;;;;;;11.60;7.95;;;;;;;13.74;58.10;102627.84;1580112;90;21165;-55
2021/11/09 13:56:33;;;;;;;9.43;7.08;;;;;;;13.76;57.65;102630.44;1580735;90;21535;-55
2021/11/09 13:59:08;;;;;;;10.23;7.83;;;;;;;13.74;57.47;102627.84;1545651;90;21602;-50
2021/11/09 14:02:07;;;;;;;9.55;7.75;;;;;;;13.73;57.49;102631.75;1580339;90;21091;-54
2021/11/09 14:10:51;;;;;;;13.13;9.08;;;;;;;13.70;57.63;102648.32;1572498;90;21099;-56